createdAt,value
2023-05-06T00:02:08.557Z,101333.15
2023-05-06T00:05:37.078Z,101331.77
2023-05-06T00:09:04.717Z,101333.53
2023-05-06T00:12:32.147Z,101327.00
2023-05-06T00:15:59.427Z,101327.70
2023-05-06T00:19:27.640Z,101325.98
2023-05-06T00:22:55.035Z,101324.46
2023-05-06T00:26:22.391Z,101324.27
2023-05-06T00:29:49.295Z,101322.56
2023-05-06T00:33:16.592Z,101324.67
2023-05-06T00:36:44.161Z,101326.09
2023-05-06T00:40:14.271Z,101322.96
2023-05-06T00:43:42.164Z,101330.08
2023-05-06T00:47:09.786Z,101330.24
2023-05-06T00:50:38.126Z,101329.21
2023-05-06T00:54:05.769Z,101329.91
2023-05-06T00:57:32.754Z,101329.06
2023-05-06T01:01:02.008Z,101325.96
2023-05-06T01:04:30.041Z,101331.47
2023-05-06T01:08:08.043Z,101331.98
2023-05-06T01:11:42.699Z,101331.29
2023-05-06T01:15:16.811Z,101327.99
2023-05-06T01:18:46.862Z,101325.70
2023-05-06T01:22:15.583Z,101321.88
2023-05-06T01:25:43.045Z,101317.89
2023-05-06T01:29:09.934Z,101319.46
2023-05-06T01:32:49.298Z,101315.30
2023-05-06T01:36:24.985Z,101318.60
2023-05-06T01:39:56.396Z,101319.80
2023-05-06T01:43:26.455Z,101321.34
2023-05-06T01:46:55.560Z,101321.14
2023-05-06T01:50:22.591Z,101314.91
2023-05-06T01:53:49.311Z,101310.03
2023-05-06T01:57:16.665Z,101301.92
2023-05-06T02:00:44.481Z,101291.89
2023-05-06T02:04:12.203Z,101293.58
2023-05-06T02:07:39.648Z,101294.45
2023-05-06T02:11:07.168Z,101300.16
2023-05-06T02:14:34.834Z,101301.52
2023-05-06T02:18:02.885Z,101300.81
2023-05-06T02:21:29.508Z,101291.64
2023-05-06T02:24:56.551Z,101295.42
2023-05-06T02:28:23.824Z,101299.55
2023-05-06T02:31:51.335Z,101294.55
2023-05-06T02:35:18.258Z,101297.65
2023-05-06T02:38:46.055Z,101298.99
2023-05-06T02:42:14.604Z,101298.13
2023-05-06T02:45:41.593Z,101302.59
2023-05-06T02:49:08.982Z,101298.22
2023-05-06T02:52:35.729Z,101296.82
2023-05-06T02:56:02.848Z,101292.98
2023-05-06T02:59:29.863Z,101294.34
2023-05-06T03:02:56.852Z,101300.02
2023-05-06T03:06:23.591Z,101297.75
2023-05-06T03:09:50.353Z,101294.61
2023-05-06T03:13:17.652Z,101292.67
2023-05-06T03:16:44.705Z,101296.64
2023-05-06T03:20:13.812Z,101297.50
2023-05-06T03:23:44.465Z,101289.86
2023-05-06T03:27:11.648Z,101288.98
2023-05-06T03:30:39.351Z,101288.14
2023-05-06T03:34:06.631Z,101286.55
2023-05-06T03:37:34.460Z,101281.69
2023-05-06T03:41:01.967Z,101279.58
2023-05-06T03:44:30.001Z,101277.31
2023-05-06T03:47:58.684Z,101276.09
2023-05-06T03:51:26.723Z,101277.10
2023-05-06T03:54:55.952Z,101278.31
2023-05-06T03:58:23.500Z,101286.75
2023-05-06T04:01:51.717Z,101285.36
2023-05-06T04:05:19.208Z,101287.55
2023-05-06T04:08:46.099Z,101286.82
2023-05-06T04:12:14.738Z,101285.23
2023-05-06T04:15:41.744Z,101280.73
2023-05-06T04:19:10.993Z,101275.18
2023-05-06T04:22:38.743Z,101277.23
2023-05-06T04:26:06.501Z,101278.95
2023-05-06T04:29:34.975Z,101280.09
2023-05-06T04:33:04.266Z,101280.89
2023-05-06T04:36:32.433Z,101280.51
2023-05-06T04:40:27.863Z,101276.69
2023-05-06T04:43:54.738Z,101267.88
2023-05-06T04:47:22.906Z,101265.95
2023-05-06T04:50:51.474Z,101264.03
2023-05-06T04:54:18.575Z,101255.89
2023-05-06T04:57:46.190Z,101260.67
2023-05-06T05:01:13.652Z,101254.93
2023-05-06T05:04:41.208Z,101253.70
2023-05-06T05:08:08.780Z,101252.85
2023-05-06T05:11:38.303Z,101250.92
2023-05-06T05:15:06.158Z,101251.48
2023-05-06T05:18:34.165Z,101243.69
2023-05-06T05:22:06.291Z,101240.36
2023-05-06T05:25:33.995Z,101239.05
2023-05-06T05:29:01.573Z,101238.81
2023-05-06T05:32:29.231Z,101238.23
2023-05-06T05:35:56.078Z,101238.39
2023-05-06T05:39:23.797Z,101235.92
2023-05-06T05:42:52.799Z,101231.88
2023-05-06T05:46:25.832Z,101241.71
2023-05-06T05:49:55.049Z,101235.24
2023-05-06T05:53:24.399Z,101227.11
2023-05-06T05:56:52.110Z,101230.92
2023-05-06T06:00:21.298Z,101230.23
2023-05-06T06:03:56.958Z,101235.91
2023-05-06T06:07:24.779Z,101235.36
2023-05-06T06:10:52.072Z,101235.34
2023-05-06T06:14:21.783Z,101235.80
2023-05-06T06:17:49.842Z,101235.10
2023-05-06T06:21:17.033Z,101234.70
2023-05-06T06:24:43.988Z,101236.89
2023-05-06T06:28:11.922Z,101231.86
2023-05-06T06:31:41.050Z,101230.10
2023-05-06T06:35:09.815Z,101237.66
2023-05-06T06:38:38.708Z,101234.98
2023-05-06T06:42:07.251Z,101235.42
2023-05-06T06:45:39.194Z,101236.60
2023-05-06T06:49:08.256Z,101243.23
2023-05-06T06:52:35.646Z,101244.64
2023-05-06T06:56:04.861Z,101248.94
2023-05-06T06:59:31.614Z,101245.96
2023-05-06T07:02:59.078Z,101245.88
2023-05-06T07:06:26.272Z,101251.82
2023-05-06T07:09:53.836Z,101257.96
2023-05-06T07:13:23.622Z,101259.09
2023-05-06T07:16:51.668Z,101255.46
2023-05-06T07:20:19.096Z,101256.48
2023-05-06T07:23:46.176Z,101252.98
2023-05-06T07:27:14.350Z,101246.73
2023-05-06T07:30:42.610Z,101244.48
2023-05-06T07:34:11.599Z,101240.36
2023-05-06T07:37:38.937Z,101230.91
2023-05-06T07:41:06.496Z,101235.41
2023-05-06T07:44:33.178Z,101235.79
2023-05-06T07:48:00.416Z,101230.89
2023-05-06T07:51:28.413Z,101231.90
2023-05-06T07:54:57.323Z,101228.77
2023-05-06T07:58:25.333Z,101229.85
2023-05-06T08:01:52.455Z,101230.68
2023-05-06T08:05:19.456Z,101229.46
2023-05-06T08:08:46.982Z,101234.08
2023-05-06T08:12:13.953Z,101232.33
2023-05-06T08:15:40.935Z,101234.92
2023-05-06T08:19:08.070Z,101228.16
2023-05-06T08:22:34.753Z,101230.59
2023-05-06T08:26:02.200Z,101229.23
2023-05-06T08:29:29.193Z,101233.98
2023-05-06T08:32:56.477Z,101242.86
2023-05-06T08:36:23.590Z,101240.59
2023-05-06T08:39:50.496Z,101242.11
2023-05-06T08:43:22.293Z,101247.07
2023-05-06T08:46:49.843Z,101243.73
2023-05-06T08:50:19.578Z,101239.23
2023-05-06T08:53:51.855Z,101244.20
2023-05-06T08:57:20.444Z,101238.98
2023-05-06T09:00:48.767Z,101252.84
2023-05-06T09:04:17.751Z,101249.31
2023-05-06T09:07:44.722Z,101245.64
2023-05-06T09:11:25.411Z,101251.42
2023-05-06T09:14:52.958Z,101249.04
2023-05-06T09:18:20.068Z,101253.05
2023-05-06T09:21:51.233Z,101252.98
2023-05-06T09:25:21.035Z,101263.27
2023-05-06T09:28:54.071Z,101263.33
2023-05-06T09:32:21.269Z,101268.72
2023-05-06T09:35:50.412Z,101270.33
2023-05-06T09:39:18.693Z,101269.34
2023-05-06T09:42:46.959Z,101267.05
2023-05-06T09:46:14.614Z,101269.40
2023-05-06T09:49:42.523Z,101269.67
2023-05-06T09:53:10.284Z,101266.34
2023-05-06T09:56:37.701Z,101260.38
2023-05-06T10:00:07.353Z,101258.02
2023-05-06T10:03:42.373Z,101258.00
2023-05-06T10:07:10.519Z,101259.05
2023-05-06T10:10:39.089Z,101254.54
2023-05-06T10:14:10.489Z,101252.27
2023-05-06T10:17:41.356Z,101252.60
2023-05-06T10:21:16.281Z,101247.89
2023-05-06T10:24:57.856Z,101244.28
2023-05-06T10:28:31.538Z,101237.20
2023-05-06T10:32:01.257Z,101232.81
2023-05-06T10:35:38.369Z,101230.48
2023-05-06T10:39:07.779Z,101228.72
2023-05-06T10:42:38.686Z,101230.25
2023-05-06T10:46:12.279Z,101226.64
2023-05-06T10:49:39.958Z,101226.83
2023-05-06T10:53:08.326Z,101223.70
2023-05-06T10:56:37.465Z,101223.20
2023-05-06T11:00:12.402Z,101222.19
2023-05-06T11:03:46.013Z,101213.95
2023-05-06T11:07:22.740Z,101213.17
2023-05-06T11:10:49.870Z,101213.52
2023-05-06T11:14:26.026Z,101212.77
2023-05-06T11:17:54.982Z,101211.47
2023-05-06T11:21:46.568Z,101211.44
2023-05-06T11:25:22.628Z,101212.55
2023-05-06T11:28:51.736Z,101208.39
2023-05-06T11:32:26.667Z,101213.27
2023-05-06T11:35:54.505Z,101211.27
2023-05-06T11:39:21.779Z,101202.17
2023-05-06T11:42:48.990Z,101209.61
2023-05-06T11:46:16.402Z,101213.26
2023-05-06T11:49:44.338Z,101209.11
2023-05-06T11:53:12.018Z,101211.28
2023-05-06T11:56:50.270Z,101214.50
2023-05-06T12:00:19.199Z,101211.14
2023-05-06T12:03:46.490Z,101212.88
2023-05-06T12:07:14.984Z,101216.95
2023-05-06T12:10:42.593Z,101216.29
2023-05-06T12:14:11.548Z,101220.39
2023-05-06T12:17:38.976Z,101226.23
2023-05-06T12:21:07.551Z,101224.23
2023-05-06T12:24:34.730Z,101216.42
2023-05-06T12:28:01.947Z,101221.20
2023-05-06T12:31:28.949Z,101218.63
2023-05-06T12:34:58.728Z,101217.80
2023-05-06T12:38:25.779Z,101213.99
2023-05-06T12:41:54.335Z,101215.52
2023-05-06T12:45:25.282Z,101218.81
2023-05-06T12:49:05.253Z,101215.88
2023-05-06T12:52:32.010Z,101220.06
2023-05-06T12:55:58.951Z,101216.62
2023-05-06T12:59:27.920Z,101222.11
2023-05-06T13:02:54.630Z,101217.78
2023-05-06T13:06:21.346Z,101218.29
2023-05-06T13:09:49.106Z,101219.36
2023-05-06T13:13:17.047Z,101218.20
2023-05-06T13:16:44.820Z,101218.48
2023-05-06T13:20:14.336Z,101227.81
2023-05-06T13:23:47.095Z,101228.11
2023-05-06T13:27:14.884Z,101231.59
2023-05-06T13:30:42.058Z,101233.20
2023-05-06T13:34:09.049Z,101233.16
2023-05-06T13:37:36.093Z,101233.64
2023-05-06T13:41:03.214Z,101234.64
2023-05-06T13:44:30.783Z,101233.23
2023-05-06T13:47:58.225Z,101235.42
2023-05-06T13:51:27.753Z,101237.27
2023-05-06T13:54:55.015Z,101234.61
2023-05-06T13:58:21.881Z,101230.38
2023-05-06T14:01:50.296Z,101231.30
2023-05-06T14:05:22.819Z,101233.99
2023-05-06T14:08:50.316Z,101234.06
2023-05-06T14:12:18.417Z,101233.00
2023-05-06T14:15:45.822Z,101234.63
2023-05-06T14:19:12.769Z,101232.14
2023-05-06T14:22:41.730Z,101229.55
2023-05-06T14:26:09.402Z,101226.55
2023-05-06T14:29:36.518Z,101230.40
2023-05-06T14:33:04.089Z,101229.90
2023-05-06T14:36:31.566Z,101229.92
2023-05-06T14:40:00.642Z,101230.95
2023-05-06T14:43:28.129Z,101231.98
2023-05-06T14:46:58.202Z,101232.99
2023-05-06T14:50:30.268Z,101231.63
2023-05-06T14:53:57.479Z,101234.04
2023-05-06T14:57:24.568Z,101233.09
2023-05-06T15:00:52.820Z,101235.87
2023-05-06T15:04:20.700Z,101234.67
2023-05-06T15:08:03.873Z,101235.56
2023-05-06T15:11:30.636Z,101234.73
2023-05-06T15:14:57.873Z,101236.38
2023-05-06T15:18:24.989Z,101232.66
2023-05-06T15:21:52.063Z,101230.56
2023-05-06T15:25:33.348Z,101230.38
2023-05-06T15:29:02.369Z,101227.55
2023-05-06T15:32:30.704Z,101231.87
2023-05-06T15:35:58.007Z,101229.79
2023-05-06T15:39:26.293Z,101231.00
2023-05-06T15:42:52.929Z,101231.64
2023-05-06T15:46:19.937Z,101231.38
2023-05-06T15:49:52.748Z,101228.30
2023-05-06T15:53:22.081Z,101233.70
2023-05-06T15:56:49.633Z,101233.09
2023-05-06T16:00:18.542Z,101229.54
2023-05-06T16:03:46.737Z,101230.20
2023-05-06T16:07:24.692Z,101226.82
2023-05-06T16:10:52.630Z,101225.91
2023-05-06T16:14:19.830Z,101223.73
2023-05-06T16:17:49.740Z,101229.27
2023-05-06T16:21:16.816Z,101232.64
2023-05-06T16:24:50.295Z,101231.76
2023-05-06T16:28:17.366Z,101234.04
2023-05-06T16:31:44.835Z,101231.23
2023-05-06T16:35:13.280Z,101230.30
2023-05-06T16:38:42.380Z,101234.13
2023-05-06T16:42:09.704Z,101236.23
2023-05-06T16:45:38.551Z,101237.66
2023-05-06T16:49:05.926Z,101234.70
2023-05-06T16:52:33.140Z,101231.81
2023-05-06T16:56:03.390Z,101233.94
2023-05-06T16:59:33.195Z,101227.58
2023-05-06T17:03:01.419Z,101224.37
2023-05-06T17:06:31.735Z,101227.02
2023-05-06T17:10:01.313Z,101230.67
2023-05-06T17:13:29.041Z,101229.90
2023-05-06T17:16:56.676Z,101228.09
2023-05-06T17:20:25.535Z,101227.58
2023-05-06T17:24:01.697Z,101228.17
2023-05-06T17:27:31.988Z,101227.25
2023-05-06T17:31:04.458Z,101224.91
2023-05-06T17:34:37.023Z,101226.91
2023-05-06T17:38:09.137Z,101228.48
2023-05-06T17:41:39.067Z,101230.18
2023-05-06T17:45:13.946Z,101228.47
2023-05-06T17:48:41.530Z,101226.90
2023-05-06T17:52:08.820Z,101227.30
2023-05-06T17:55:36.155Z,101230.33
2023-05-06T17:59:14.663Z,101233.02
2023-05-06T18:02:42.923Z,101233.69
2023-05-06T18:06:10.676Z,101235.86
2023-05-06T18:09:39.378Z,101242.74
2023-05-06T18:13:07.072Z,101243.59
2023-05-06T18:16:35.661Z,101247.14
2023-05-06T18:20:04.091Z,101245.88
2023-05-06T18:23:31.399Z,101248.55
2023-05-06T18:27:02.095Z,101249.95
2023-05-06T18:30:31.354Z,101259.11
2023-05-06T18:33:58.685Z,101258.80
2023-05-06T18:37:27.453Z,101260.61
2023-05-06T18:40:55.363Z,101268.98
2023-05-06T18:44:23.147Z,101272.23
2023-05-06T18:47:50.881Z,101279.77
2023-05-06T18:51:21.909Z,101282.43
2023-05-06T18:54:51.880Z,101279.91
2023-05-06T18:58:21.416Z,101288.30
2023-05-06T19:01:51.144Z,101281.67
2023-05-06T19:05:19.910Z,101282.68
2023-05-06T19:08:47.677Z,101287.69
2023-05-06T19:12:20.979Z,101289.00
2023-05-06T19:15:49.949Z,101288.17
2023-05-06T19:19:19.942Z,101288.92
2023-05-06T19:22:52.880Z,101289.58
2023-05-06T19:26:29.605Z,101289.59
2023-05-06T19:30:01.717Z,101284.34
2023-05-06T19:33:29.428Z,101285.45
2023-05-06T19:36:57.962Z,101279.92
2023-05-06T19:40:26.377Z,101284.66
2023-05-06T19:43:54.689Z,101281.38
2023-05-06T19:47:22.392Z,101281.77
2023-05-06T19:50:51.047Z,101281.63
2023-05-06T19:54:22.759Z,101279.38
2023-05-06T19:57:53.662Z,101279.41
2023-05-06T20:01:24.265Z,101284.59
2023-05-06T20:04:53.867Z,101288.55
2023-05-06T20:08:21.318Z,101288.96
2023-05-06T20:11:51.642Z,101290.38
2023-05-06T20:15:19.639Z,101286.05
2023-05-06T20:18:52.484Z,101286.83
2023-05-06T20:22:19.459Z,101291.70
2023-05-06T20:25:50.008Z,101283.89
2023-05-06T20:29:20.355Z,101290.37
2023-05-06T20:32:53.620Z,101297.02
2023-05-06T20:36:24.492Z,101295.08
2023-05-06T20:39:53.850Z,101298.35
2023-05-06T20:43:21.752Z,101302.00
2023-05-06T20:46:52.832Z,101307.14
2023-05-06T20:50:25.380Z,101312.54
2023-05-06T20:53:52.447Z,101310.41
2023-05-06T20:57:20.734Z,101312.45
2023-05-06T21:00:49.250Z,101315.02
2023-05-06T21:04:19.162Z,101317.91
2023-05-06T21:07:49.564Z,101315.45
2023-05-06T21:11:20.211Z,101318.33
2023-05-06T21:14:50.587Z,101316.53
2023-05-06T21:18:33.154Z,101318.25
2023-05-06T21:22:02.723Z,101316.77
2023-05-06T21:25:36.324Z,101314.16
2023-05-06T21:29:08.678Z,101314.36
2023-05-06T21:32:36.270Z,101317.98
2023-05-06T21:36:04.291Z,101319.42
2023-05-06T21:39:31.811Z,101320.08
2023-05-06T21:43:00.689Z,101323.80
2023-05-06T21:46:29.443Z,101321.02
2023-05-06T21:50:00.815Z,101325.33
2023-05-06T21:53:29.051Z,101326.20
2023-05-06T21:57:10.639Z,101329.03
2023-05-06T22:00:37.975Z,101329.34
2023-05-06T22:04:11.580Z,101333.22
2023-05-06T22:07:39.251Z,101333.60
2023-05-06T22:11:06.201Z,101332.21
2023-05-06T22:14:40.523Z,101332.98
2023-05-06T22:18:09.475Z,101334.30
2023-05-06T22:21:37.199Z,101335.02
2023-05-06T22:25:05.304Z,101334.04
2023-05-06T22:28:35.384Z,101327.98
2023-05-06T22:32:02.668Z,101330.16
2023-05-06T22:35:29.742Z,101330.48
2023-05-06T22:38:56.428Z,101328.89
2023-05-06T22:42:23.430Z,101322.42
2023-05-06T22:45:50.610Z,101326.70
2023-05-06T22:49:19.816Z,101330.73
2023-05-06T22:52:47.442Z,101334.13
2023-05-06T22:56:14.639Z,101335.80
2023-05-06T22:59:41.140Z,101336.44
2023-05-06T23:03:08.689Z,101338.49
2023-05-06T23:06:35.674Z,101344.02
2023-05-06T23:10:02.632Z,101349.17
2023-05-06T23:13:31.688Z,101348.58
2023-05-06T23:17:01.665Z,101351.42
2023-05-06T23:20:28.514Z,101351.16
2023-05-06T23:23:55.176Z,101345.71
2023-05-06T23:27:21.618Z,101351.65
2023-05-06T23:30:50.372Z,101356.53
2023-05-06T23:34:17.793Z,101357.08
2023-05-06T23:37:46.164Z,101360.41
2023-05-06T23:41:13.895Z,101359.10
2023-05-06T23:44:41.331Z,101361.62
2023-05-06T23:48:09.211Z,101360.48
2023-05-06T23:51:36.616Z,101360.45
2023-05-06T23:55:03.260Z,101361.50
2023-05-06T23:58:31.116Z,101359.47
